Time;durP1;ratioP1;P1;durP2;ratioP2;P2;SDS_P1;SDS_P2;PMS_P1;PMS_P2;Temp;Humidity;BMP_temperature;BMP_pressure;BME280_temperature;BME280_humidity;BME280_pressure;Samples;Min_cycle;Max_cycle;Signal;HPM_P1;HPM_P2
2021/11/01 00:00:49;;;;;;;3.37;2.10;;;;;;;;;;5070490;28;20188;-62
2021/11/01 00:03:16;;;;;;;5.50;2.80;;;;;;;;;;5051294;28;20173;-62
2021/11/01 00:05:42;;;;;;;5.00;2.90;;;;;;;;;;5051959;28;20169;-62
2021/11/01 00:08:11;;;;;;;4.77;2.03;;;;;;;;;;5069750;28;20164;-63
2021/11/01 00:10:38;;;;;;;9.20;2.47;;;;;;;;;;5051836;28;20180;-63
2021/11/01 00:13:04;;;;;;;6.90;2.57;;;;;;;;;;5069877;28;20176;-63
2021/11/01 00:15:31;;;;;;;4.30;2.43;;;;;;;;;;5052053;28;20678;-63
2021/11/01 00:17:57;;;;;;;4.63;2.20;;;;;;;;;;5051240;28;20315;-62
2021/11/01 00:20:24;;;;;;;5.10;2.23;;;;;;;;;;5050119;28;20183;-63
2021/11/01 00:22:50;;;;;;;7.63;2.50;;;;;;;;;;5068897;28;20160;-63
2021/11/01 00:25:16;;;;;;;5.47;2.07;;;;;;;;;;5070133;28;20652;-62
2021/11/01 00:27:43;;;;;;;8.77;2.20;;;;;;;;;;5069814;28;20172;-62
2021/11/01 00:30:11;;;;;;;5.47;2.13;;;;;;;;;;5069503;28;20635;-62
2021/11/01 00:32:43;;;;;;;5.33;2.63;;;;;;;;;;5051533;28;20267;-63
2021/11/01 00:35:09;;;;;;;5.13;3.17;;;;;;;;;;5051052;28;20180;-63
2021/11/01 00:37:36;;;;;;;5.07;2.17;;;;;;;;;;5051455;28;20207;-63
2021/11/01 00:40:03;;;;;;;6.33;2.20;;;;;;;;;;5051237;28;20168;-62
2021/11/01 00:42:31;;;;;;;4.93;2.17;;;;;;;;;;5051820;28;20279;-63
2021/11/01 00:45:01;;;;;;;7.60;2.73;;;;;;;;;;5069363;28;20195;-63
2021/11/01 00:47:27;;;;;;;4.50;1.93;;;;;;;;;;5051676;28;20529;-63
2021/11/01 00:49:54;;;;;;;4.87;1.90;;;;;;;;;;5068507;28;20193;-62
2021/11/01 00:52:29;;;;;;;3.90;1.90;;;;;;;;;;5050956;28;20176;-63
2021/11/01 00:55:05;;;;;;;5.87;2.57;;;;;;;;;;5069344;28;20157;-63
2021/11/01 00:57:31;;;;;;;5.33;2.50;;;;;;;;;;5051310;28;20192;-63
2021/11/01 01:00:01;;;;;;;3.77;2.13;;;;;;;;;;5068888;28;20165;-62
2021/11/01 01:02:34;;;;;;;5.27;1.87;;;;;;;;;;5051329;28;20176;-62
2021/11/01 01:05:01;;;;;;;5.37;2.00;;;;;;;;;;5050856;28;20204;-63
2021/11/01 01:07:31;;;;;;;5.27;2.30;;;;;;;;;;5050873;28;20639;-62
2021/11/01 01:09:58;;;;;;;5.73;2.00;;;;;;;;;;5050958;28;20184;-62
2021/11/01 01:12:24;;;;;;;3.93;2.00;;;;;;;;;;5051186;28;20203;-63
2021/11/01 01:15:03;;;;;;;4.43;2.53;;;;;;;;;;5050897;28;20222;-62
2021/11/01 01:17:31;;;;;;;7.70;2.67;;;;;;;;;;5050565;28;20247;-62
2021/11/01 01:20:06;;;;;;;6.57;1.93;;;;;;;;;;5068671;28;20197;-62
2021/11/01 01:22:32;;;;;;;4.70;1.97;;;;;;;;;;5050051;28;20192;-62
2021/11/01 01:25:04;;;;;;;5.00;2.13;;;;;;;;;;5069147;28;20258;-62
2021/11/01 01:27:49;;;;;;;4.00;2.10;;;;;;;;;;5068277;28;20258;-63
2021/11/01 01:30:15;;;;;;;5.30;2.07;;;;;;;;;;5068494;28;20531;-62
2021/11/01 01:32:44;;;;;;;5.80;1.97;;;;;;;;;;5068724;28;20173;-63
2021/11/01 01:35:10;;;;;;;4.53;1.73;;;;;;;;;;5049369;28;20222;-63
2021/11/01 01:37:36;;;;;;;6.57;2.40;;;;;;;;;;5067965;28;20196;-63
2021/11/01 01:40:03;;;;;;;4.43;2.10;;;;;;;;;;5050517;28;20720;-62
2021/11/01 01:42:29;;;;;;;9.13;2.40;;;;;;;;;;5050557;28;20592;-63
2021/11/01 01:44:55;;;;;;;4.10;2.43;;;;;;;;;;5068328;28;20666;-62
2021/11/01 01:47:21;;;;;;;6.07;2.43;;;;;;;;;;5068417;28;20557;-62
2021/11/01 01:49:48;;;;;;;5.10;2.43;;;;;;;;;;5067187;28;20210;-62
2021/11/01 01:52:15;;;;;;;6.17;2.40;;;;;;;;;;5049902;28;20230;-62
2021/11/01 01:54:41;;;;;;;4.70;2.03;;;;;;;;;;5050047;28;20222;-62
2021/11/01 01:57:08;;;;;;;4.47;2.20;;;;;;;;;;5050085;28;20625;-62
2021/11/01 01:59:34;;;;;;;5.73;2.03;;;;;;;;;;5068054;28;20620;-62
2021/11/01 02:02:00;;;;;;;6.33;2.97;;;;;;;;;;5068782;28;20164;-62
2021/11/01 02:04:27;;;;;;;3.37;2.33;;;;;;;;;;5048820;28;20172;-62
2021/11/01 02:07:09;;;;;;;4.77;2.13;;;;;;;;;;5049728;28;20168;-62
2021/11/01 02:09:52;;;;;;;5.97;2.57;;;;;;;;;;5049782;28;20172;-63
2021/11/01 02:12:29;;;;;;;6.90;2.63;;;;;;;;;;5068243;28;20167;-63
2021/11/01 02:15:16;;;;;;;4.63;2.43;;;;;;;;;;5049855;28;20258;-63
2021/11/01 02:17:43;;;;;;;4.20;1.87;;;;;;;;;;5026218;28;20220;-64
2021/11/01 02:20:13;;;;;;;5.20;2.20;;;;;;;;;;5049213;28;20180;-65
2021/11/01 02:22:48;;;;;;;5.40;2.23;;;;;;;;;;5067682;28;20160;-64
2021/11/01 02:25:26;;;;;;;4.33;2.17;;;;;;;;;;5067779;28;20192;-65
2021/11/01 02:27:53;;;;;;;6.90;2.83;;;;;;;;;;5067939;28;20179;-65
2021/11/01 02:30:19;;;;;;;4.43;3.80;;;;;;;;;;5067736;28;20177;-64
2021/11/01 02:32:47;;;;;;;3.23;2.17;;;;;;;;;;5067643;28;20173;-64
2021/11/01 02:35:14;;;;;;;6.27;2.17;;;;;;;;;;5067301;28;20210;-65
2021/11/01 02:37:44;;;;;;;6.50;2.63;;;;;;;;;;5049096;28;20212;-64
2021/11/01 02:40:11;;;;;;;5.03;2.70;;;;;;;;;;5049525;28;20215;-64
2021/11/01 02:42:40;;;;;;;3.43;2.63;;;;;;;;;;5049250;28;20177;-64
2021/11/01 02:45:08;;;;;;;4.93;2.53;;;;;;;;;;5068677;28;20179;-64
2021/11/01 02:47:34;;;;;;;4.00;2.13;;;;;;;;;;5071326;28;20185;-63
2021/11/01 02:50:01;;;;;;;6.70;2.67;;;;;;;;;;5071223;28;20170;-64
2021/11/01 02:52:31;;;;;;;3.83;2.33;;;;;;;;;;5052719;28;20184;-64
2021/11/01 02:54:58;;;;;;;3.37;2.20;;;;;;;;;;5053111;28;20174;-63
2021/11/01 02:57:24;;;;;;;3.77;2.03;;;;;;;;;;5052922;28;20208;-64
2021/11/01 02:59:50;;;;;;;5.30;2.30;;;;;;;;;;5071242;28;20172;-65
2021/11/01 03:02:18;;;;;;;2.93;2.23;;;;;;;;;;5052740;28;20201;-63
2021/11/01 03:04:44;;;;;;;4.10;2.00;;;;;;;;;;5052512;28;20914;-68
2021/11/01 03:07:10;;;;;;;3.85;2.15;;;;;;;;;;5052342;28;20750;-64
2021/11/01 03:09:41;;;;;;;6.87;3.20;;;;;;;;;;5052677;28;20234;-64
2021/11/01 03:12:09;;;;;;;5.90;2.10;;;;;;;;;;5053130;28;20167;-64
2021/11/01 03:14:40;;;;;;;3.23;2.00;;;;;;;;;;5062872;28;20245;-63
2021/11/01 03:17:11;;;;;;;5.30;2.40;;;;;;;;;;5032707;28;20241;-63
2021/11/01 03:19:43;;;;;;;6.23;2.27;;;;;;;;;;5032379;28;20259;-63
2021/11/01 03:22:09;;;;;;;5.63;2.47;;;;;;;;;;5033224;28;20178;-63
2021/11/01 03:24:39;;;;;;;7.53;2.63;;;;;;;;;;5033123;28;20256;-64
2021/11/01 03:27:07;;;;;;;5.20;2.40;;;;;;;;;;5032980;28;20177;-62
2021/11/01 03:29:34;;;;;;;6.33;2.17;;;;;;;;;;5032802;28;20196;-64
2021/11/01 03:32:02;;;;;;;4.23;2.30;;;;;;;;;;5016773;28;20269;-62
2021/11/01 03:34:28;;;;;;;5.43;2.33;;;;;;;;;;5031520;28;20177;-64
2021/11/01 03:36:56;;;;;;;2.70;1.90;;;;;;;;;;5032627;28;20204;-64
2021/11/01 03:39:23;;;;;;;4.97;2.03;;;;;;;;;;5032428;28;20257;-64
2021/11/01 03:41:50;;;;;;;4.57;2.00;;;;;;;;;;5032792;28;20732;-64
2021/11/01 03:44:25;;;;;;;7.90;2.33;;;;;;;;;;5044549;28;20172;-64
2021/11/01 03:47:00;;;;;;;8.80;2.30;;;;;;;;;;5032760;28;20163;-65
2021/11/01 03:49:29;;;;;;;4.67;2.20;;;;;;;;;;5031919;28;20754;-65
2021/11/01 03:52:20;;;;;;;4.40;2.33;;;;;;;;;;5032419;28;20597;-64
2021/11/01 03:54:42;;;;;;;5.73;1.90;;;;;;;;;;5050447;28;20173;-65
2021/11/01 03:57:09;;;;;;;12.07;2.27;;;;;;;;;;5031057;28;20644;-65
2021/11/01 03:59:36;;;;;;;7.30;2.03;;;;;;;;;;5050508;28;20195;-65
2021/11/01 04:02:03;;;;;;;2.50;1.90;;;;;;;;;;5050488;28;20201;-66
2021/11/01 04:04:32;;;;;;;4.80;2.17;;;;;;;;;;5049611;28;20629;-66
2021/11/01 04:07:01;;;;;;;6.03;2.30;;;;;;;;;;5032004;28;20211;-66
2021/11/01 04:09:28;;;;;;;2.87;1.83;;;;;;;;;;5032223;28;20184;-66
2021/11/01 04:11:56;;;;;;;4.50;2.00;;;;;;;;;;5050373;28;20197;-65
2021/11/01 04:14:24;;;;;;;5.67;2.13;;;;;;;;;;5050480;28;20463;-66
2021/11/01 04:16:59;;;;;;;6.43;5.83;;;;;;;;;;5049852;28;20221;-65
2021/11/01 04:21:52;;;;;;;4.50;2.43;;;;;;;;;;5049860;28;20173;-66
2021/11/01 04:24:20;;;;;;;5.67;2.27;;;;;;;;;;5032461;28;20256;-66
2021/11/01 04:26:47;;;;;;;4.13;1.90;;;;;;;;;;5031942;28;20216;-65
2021/11/01 04:29:13;;;;;;;4.10;2.10;;;;;;;;;;5050046;28;20230;-66
2021/11/01 04:31:47;;;;;;;6.73;6.17;;;;;;;;;;5031651;28;20185;-66
2021/11/01 04:34:18;;;;;;;6.60;2.77;;;;;;;;;;5037350;28;20172;-65
2021/11/01 04:36:44;;;;;;;5.23;2.33;;;;;;;;;;5051474;28;20734;-63
2021/11/01 04:53:08;;;;;;;2.10;1.80;;;;;;;;;;5069372;28;20516;-63
2021/11/01 04:55:35;;;;;;;8.10;2.57;;;;;;;;;;5051658;28;20180;-63
2021/11/01 04:58:01;;;;;;;6.70;2.43;;;;;;;;;;5069162;28;20196;-63
2021/11/01 05:00:29;;;;;;;7.33;3.27;;;;;;;;;;5069803;28;20512;-63
2021/11/01 05:03:06;;;;;;;6.30;2.07;;;;;;;;;;5068966;28;20638;-63
2021/11/01 05:05:33;;;;;;;3.80;2.07;;;;;;;;;;5069253;28;20611;-63
2021/11/01 05:08:00;;;;;;;5.60;1.73;;;;;;;;;;5050250;28;20184;-63
2021/11/01 05:10:37;;;;;;;5.20;1.93;;;;;;;;;;5069173;28;20549;-63
2021/11/01 05:13:10;;;;;;;4.13;2.10;;;;;;;;;;5050859;28;20172;-63
2021/11/01 05:15:45;;;;;;;4.23;1.97;;;;;;;;;;5068982;28;20565;-62
2021/11/01 05:18:25;;;;;;;2.90;2.00;;;;;;;;;;5068628;28;20187;-63
2021/11/01 05:21:05;;;;;;;5.73;2.23;;;;;;;;;;5050468;28;20214;-63
2021/11/01 05:23:38;;;;;;;6.07;2.40;;;;;;;;;;5068964;28;20235;-63
2021/11/01 05:26:18;;;;;;;3.77;1.80;;;;;;;;;;5050706;28;20216;-63
2021/11/01 05:28:48;;;;;;;4.50;2.23;;;;;;;;;;5050895;28;20421;-63
2021/11/01 05:31:24;;;;;;;4.10;2.03;;;;;;;;;;5050518;28;20175;-62
2021/11/01 05:33:55;;;;;;;3.77;1.77;;;;;;;;;;5050269;28;20183;-63
2021/11/01 05:36:21;;;;;;;4.47;2.10;;;;;;;;;;5049503;28;20639;-63
2021/11/01 05:38:49;;;;;;;8.30;2.30;;;;;;;;;;5050398;28;20270;-63
2021/11/01 05:41:16;;;;;;;3.73;2.13;;;;;;;;;;5050182;28;20176;-62
2021/11/01 05:43:45;;;;;;;6.17;2.47;;;;;;;;;;5049733;28;20208;-62
2021/11/01 05:46:13;;;;;;;3.40;2.80;;;;;;;;;;5050232;28;20266;-62
2021/11/01 05:48:51;;;;;;;3.93;2.33;;;;;;;;;;5049804;28;20543;-63
2021/11/01 05:51:19;;;;;;;4.07;1.90;;;;;;;;;;5067573;28;20907;-62
2021/11/01 05:53:49;;;;;;;4.67;1.87;;;;;;;;;;5068341;28;20187;-63
2021/11/01 06:02:10;;;;;;;3.93;2.60;;;;;;;;;;5068145;28;20188;-63
2021/11/01 06:07:32;;;;;;;3.27;1.77;;;;;;;;;;5038528;28;20704;-62
2021/11/01 06:15:11;;;;;;;4.50;1.80;;;;;;;;;;5068251;28;20607;-63
2021/11/01 06:17:38;;;;;;;3.80;1.90;;;;;;;;;;5048799;28;20227;-63
2021/11/01 06:20:06;;;;;;;4.20;2.00;;;;;;;;;;5048562;28;20180;-63
2021/11/01 06:22:33;;;;;;;2.33;1.90;;;;;;;;;;5049123;28;20242;-63
2021/11/01 06:25:10;;;;;;;2.80;1.60;;;;;;;;;;5049770;28;20196;-63
2021/11/01 06:27:37;;;;;;;6.17;2.10;;;;;;;;;;5049458;28;20180;-63
2021/11/01 06:43:31;;;;;;;3.67;2.00;;;;;;;;;;5052753;28;20180;-62
2021/11/01 06:49:42;;;;;;;6.87;1.97;;;;;;;;;;5067569;28;20196;-63
2021/11/01 07:14:06;;;;;;;4.73;1.73;;;;;;;;;;5067472;28;20668;-63
2021/11/01 07:16:48;;;;;;;4.07;1.87;;;;;;;;;;5047463;28;20228;-63
2021/11/01 07:19:20;;;;;;;7.43;2.33;;;;;;;;;;5044608;28;20280;-62
2021/11/01 07:24:55;;;;;;;5.90;1.90;;;;;;;;;;5047300;28;20256;-62
2021/11/01 07:38:33;;;;;;;4.13;2.10;;;;;;;;;;5050702;28;20252;-61
2021/11/01 08:23:04;;;;;;;9.00;2.73;;;;;;;;;;5049509;28;20696;-62
2021/11/01 08:34:43;;;;;;;5.07;2.50;;;;;;;;;;5049650;28;20165;-62
2021/11/01 08:36:28;;;;;;;7.63;2.33;;;;;;;;;;5041193;28;20184;-63
2021/11/01 08:39:27;;;;;;;3.53;2.40;;;;;;;;;;5049621;28;20196;-62
2021/11/01 09:01:26;;;;;;;4.27;2.00;;;;;;;;;;5069444;28;20707;-62
2021/11/01 09:06:59;;;;;;;8.63;2.27;;;;;;;;;;5035318;28;20193;-62
2021/11/01 09:10:02;;;;;;;5.83;1.70;;;;;;;;;;5031436;28;20177;-62
2021/11/01 09:20:21;;;;;;;4.03;1.67;;;;;;;;;;5048728;28;20172;-62
2021/11/01 09:23:09;;;;;;;3.67;1.97;;;;;;;;;;5031408;28;20177;-62
2021/11/01 09:36:23;;;;;;;4.60;1.93;;;;;;;;;;5068653;28;20718;-60
2021/11/01 09:41:34;;;;;;;6.43;1.87;;;;;;;;;;5068920;28;20557;-60
2021/11/01 09:44:04;;;;;;;4.20;2.20;;;;;;;;;;5050511;28;20169;-61
2021/11/01 09:46:30;;;;;;;2.43;1.90;;;;;;;;;;5068536;28;20678;-61
2021/11/01 09:49:18;;;;;;;9.10;2.60;;;;;;;;;;5050212;28;20556;-61
2021/11/01 09:51:46;;;;;;;4.33;1.97;;;;;;;;;;5049999;28;20181;-62
2021/11/01 09:54:20;;;;;;;3.87;1.70;;;;;;;;;;5049640;28;20180;-62
2021/11/01 09:57:09;;;;;;;7.03;2.27;;;;;;;;;;5050355;28;20180;-63
2021/11/01 09:59:36;;;;;;;5.00;2.53;;;;;;;;;;5048968;28;20197;-64
2021/11/01 10:02:03;;;;;;;5.93;2.60;;;;;;;;;;5068195;28;20172;-63
2021/11/01 10:04:31;;;;;;;3.63;1.80;;;;;;;;;;5049081;28;20263;-63
2021/11/01 10:07:32;;;;;;;3.73;1.50;;;;;;;;;;5057276;28;20181;-63
2021/11/01 10:10:09;;;;;;;1.93;1.30;;;;;;;;;;5023167;28;20227;-64
2021/11/01 10:12:36;;;;;;;5.27;1.67;;;;;;;;;;5046727;28;20165;-64
2021/11/01 10:18:07;;;;;;;7.10;2.60;;;;;;;;;;5047350;28;20318;-64
2021/11/01 10:20:36;;;;;;;6.77;1.83;;;;;;;;;;5047501;28;20455;-65
2021/11/01 10:23:12;;;;;;;3.03;1.70;;;;;;;;;;5047734;28;20165;-60
2021/11/01 10:25:39;;;;;;;3.23;1.50;;;;;;;;;;5048095;28;20973;-59
2021/11/01 10:28:06;;;;;;;4.47;1.73;;;;;;;;;;5046408;28;20201;-63
2021/11/01 10:30:39;;;;;;;5.00;1.70;;;;;;;;;;5046494;28;20170;-62
2021/11/01 10:33:07;;;;;;;4.27;1.83;;;;;;;;;;5047157;28;20179;-63
2021/11/01 10:35:39;;;;;;;3.93;1.70;;;;;;;;;;5045977;28;20177;-62
2021/11/01 10:38:34;;;;;;;5.03;1.77;;;;;;;;;;5046067;28;20620;-62
2021/11/01 10:41:10;;;;;;;6.50;2.87;;;;;;;;;;5046233;28;20627;-62
2021/11/01 10:43:53;;;;;;;6.77;2.10;;;;;;;;;;5049589;28;20242;-63
2021/11/01 10:47:10;;;;;;;3.10;1.43;;;;;;;;;;5049110;28;20587;-63
2021/11/01 11:17:03;;;;;;;4.13;1.73;;;;;;;;;;5062491;28;20228;-63
2021/11/01 11:20:09;;;;;;;4.50;1.67;;;;;;;;;;5055761;28;20201;-63
2021/11/01 11:49:27;;;;;;;5.17;1.47;;;;;;;;;;5067654;28;20181;-63
2021/11/01 11:52:00;;;;;;;3.07;1.27;;;;;;;;;;5036670;28;20189;-63
2021/11/01 11:54:45;;;;;;;5.03;1.50;;;;;;;;;;5051870;28;21938;-66
2021/11/01 11:57:21;;;;;;;4.80;1.60;;;;;;;;;;5049560;28;20207;-60
2021/11/01 11:59:51;;;;;;;4.13;1.63;;;;;;;;;;5040165;28;20202;-66
2021/11/01 12:02:38;;;;;;;2.37;1.30;;;;;;;;;;5065263;28;20234;-66
2021/11/01 12:05:26;;;;;;;3.60;1.80;;;;;;;;;;5059819;28;20173;-64
2021/11/01 12:09:02;;;;;;;2.97;1.60;;;;;;;;;;5038325;28;20174;-64
2021/11/01 12:11:18;;;;;;;3.57;1.40;;;;;;;;;;5048080;28;20184;-63
2021/11/01 12:19:07;;;;;;;1.93;1.40;;;;;;;;;;5033729;28;20250;-66
2021/11/01 12:21:35;;;;;;;2.70;1.37;;;;;;;;;;5019997;28;20181;-66
2021/11/01 12:24:01;;;;;;;5.43;1.50;;;;;;;;;;5028957;28;20193;-63
2021/11/01 12:26:28;;;;;;;3.73;1.60;;;;;;;;;;5029031;28;20203;-64
2021/11/01 12:28:58;;;;;;;6.90;2.03;;;;;;;;;;5027541;28;20549;-65
2021/11/01 12:31:28;;;;;;;4.13;1.97;;;;;;;;;;5028570;28;20169;-66
2021/11/01 12:39:33;;;;;;;4.73;1.40;;;;;;;;;;5038463;28;20205;-68
2021/11/01 12:58:04;;;;;;;3.20;1.70;;;;;;;;;;5043283;28;20232;-64
2021/11/01 13:00:39;;;;;;;5.13;1.20;;;;;;;;;;5034327;28;20809;-64
2021/11/01 13:03:18;;;;;;;5.63;2.03;;;;;;;;;;5011169;28;20195;-63
2021/11/01 13:05:59;;;;;;;4.77;1.57;;;;;;;;;;5038605;28;20205;-65
2021/11/01 13:08:28;;;;;;;3.03;1.83;;;;;;;;;;5023375;28;20280;-62
2021/11/01 13:11:02;;;;;;;4.13;1.23;;;;;;;;;;5035422;28;20261;-62
2021/11/01 13:19:11;;;;;;;4.60;1.60;;;;;;;;;;5065738;28;20772;-65
2021/11/01 13:22:04;;;;;;;5.77;1.50;;;;;;;;;;5045017;28;20625;-64
2021/11/01 13:38:31;;;;;;;2.70;1.23;;;;;;;;;;5068187;28;20230;-65
2021/11/01 13:40:58;;;;;;;4.30;1.50;;;;;;;;;;5040470;28;20211;-66
2021/11/01 13:43:28;;;;;;;2.70;1.50;;;;;;;;;;5034601;28;20188;-64
2021/11/01 13:45:58;;;;;;;6.17;2.40;;;;;;;;;;5033499;28;20189;-65
2021/11/01 13:48:26;;;;;;;3.40;1.47;;;;;;;;;;5055508;28;20185;-66
2021/11/01 13:51:00;;;;;;;4.20;1.37;;;;;;;;;;5038183;28;20608;-62
2021/11/01 13:53:29;;;;;;;4.23;1.60;;;;;;;;;;5047667;28;20202;-62
2021/11/01 13:56:15;;;;;;;3.73;1.40;;;;;;;;;;5063045;28;20718;-62
2021/11/01 13:58:54;;;;;;;4.07;1.33;;;;;;;;;;5042577;28;20235;-61
2021/11/01 14:12:41;;;;;;;3.80;1.83;;;;;;;;;;5058684;28;20188;-62
2021/11/01 14:15:35;;;;;;;3.60;1.40;;;;;;;;;;5057967;28;20173;-65
2021/11/01 14:18:29;;;;;;;4.13;1.57;;;;;;;;;;5048221;28;20243;-65
2021/11/01 15:01:24;;;;;;;2.83;1.30;;;;;;;;;;5034017;28;20179;-63
2021/11/01 15:22:53;;;;;;;2.90;1.50;;;;;;;;;;5040498;28;20184;-61
2021/11/01 15:38:47;;;;;;;2.90;1.70;;;;;;;;;;4998568;28;20212;-60
2021/11/01 16:17:15;;;;;;;2.50;1.90;;;;;;;;;;5049932;28;20228;-59
2021/11/01 16:19:44;;;;;;;6.23;2.93;;;;;;;;;;5056425;28;20554;-59
2021/11/01 16:22:11;;;;;;;3.50;2.00;;;;;;;;;;5053348;28;20536;-59
2021/11/01 16:24:38;;;;;;;3.23;1.67;;;;;;;;;;5066046;28;20172;-59
2021/11/01 16:27:06;;;;;;;4.13;1.80;;;;;;;;;;5051592;28;20177;-59
2021/11/01 16:32:24;;;;;;;2.90;2.13;;;;;;;;;;5080272;28;20229;-59
2021/11/01 16:34:56;;;;;;;4.97;1.43;;;;;;;;;;5089951;28;20156;-59
2021/11/01 16:37:29;;;;;;;5.83;2.13;;;;;;;;;;5071006;28;20164;-60
2021/11/01 16:40:04;;;;;;;7.57;2.00;;;;;;;;;;5044888;28;20204;-59
2021/11/01 16:42:34;;;;;;;1.90;1.37;;;;;;;;;;5069022;28;20230;-59
2021/11/01 16:45:14;;;;;;;5.07;1.60;;;;;;;;;;5046623;28;20184;-59
2021/11/01 16:47:42;;;;;;;2.93;1.50;;;;;;;;;;5051764;28;20180;-60
2021/11/01 16:50:10;;;;;;;3.20;1.67;;;;;;;;;;5051083;28;20180;-59
2021/11/01 16:52:36;;;;;;;6.03;2.13;;;;;;;;;;5076399;28;20172;-60
2021/11/01 16:55:09;;;;;;;3.03;1.87;;;;;;;;;;5051842;28;20184;-59
2021/11/01 16:57:43;;;;;;;5.53;1.40;;;;;;;;;;5052601;28;20530;-59
2021/11/01 17:00:25;;;;;;;2.57;1.63;;;;;;;;;;5070959;28;20614;-59
2021/11/01 17:05:57;;;;;;;4.40;1.80;;;;;;;;;;5069651;28;20304;-59
2021/11/01 17:08:57;;;;;;;7.73;1.80;;;;;;;;;;5061505;28;20162;-60
2021/11/01 17:22:33;;;;;;;4.70;1.77;;;;;;;;;;5054824;28;20191;-71
2021/11/01 17:25:20;;;;;;;2.57;1.97;;;;;;;;;;5047655;28;20204;-73
2021/11/01 18:40:58;;;;;;;54.70;35.10;;;;;;;;;;5056811;28;20164;-70
2021/11/01 18:51:40;;;;;;;41.87;29.67;;;;;;;;;;5059173;28;20211;-69
2021/11/01 18:54:20;;;;;;;44.30;30.87;;;;;;;;;;5031426;28;20727;-68
2021/11/01 18:56:52;;;;;;;34.10;24.10;;;;;;;;;;5063628;28;20220;-70
2021/11/01 18:59:22;;;;;;;39.43;27.23;;;;;;;;;;5058415;28;20260;-67
2021/11/01 19:02:33;;;;;;;31.97;22.30;;;;;;;;;;5067425;28;20661;-68
2021/11/01 19:04:57;;;;;;;33.07;23.30;;;;;;;;;;5064495;28;20749;-70
2021/11/01 19:07:43;;;;;;;28.40;19.13;;;;;;;;;;5048598;28;20172;-68
2021/11/01 20:03:21;;;;;;;8.10;5.23;;;;;;;;;;5057435;28;20220;-67
2021/11/01 20:05:51;;;;;;;5.90;5.20;;;;;;;;;;5040960;28;20177;-68
2021/11/01 20:08:37;;;;;;;8.20;5.60;;;;;;;;;;5070805;28;20161;-67
2021/11/01 21:26:59;;;;;;;4.50;2.80;;;;;;;;;;5060207;28;20212;-72
2021/11/01 21:29:26;;;;;;;4.27;2.60;;;;;;;;;;5063663;28;20188;-70
2021/11/01 21:31:58;;;;;;;3.77;2.63;;;;;;;;;;5063142;28;20461;-72
2021/11/01 21:34:33;;;;;;;5.50;3.47;;;;;;;;;;5045504;28;20700;-73
2021/11/01 21:37:00;;;;;;;5.40;2.67;;;;;;;;;;5050506;28;20604;-73
2021/11/01 21:39:27;;;;;;;5.03;2.80;;;;;;;;;;5053370;28;20520;-72
2021/11/01 21:41:56;;;;;;;4.40;3.03;;;;;;;;;;5035877;28;20178;-72
2021/11/01 21:44:23;;;;;;;3.00;2.60;;;;;;;;;;5047007;28;20172;-70
2021/11/01 21:46:50;;;;;;;5.33;2.93;;;;;;;;;;5042375;28;20177;-73
2021/11/01 21:49:17;;;;;;;3.13;2.40;;;;;;;;;;5058670;28;20562;-67
2021/11/01 21:51:51;;;;;;;4.90;3.00;;;;;;;;;;5066345;28;21095;-72
2021/11/01 21:54:26;;;;;;;5.07;2.83;;;;;;;;;;5050734;28;20177;-73
2021/11/01 22:19:43;;;;;;;4.73;2.87;;;;;;;;;;5061104;28;20210;-74
2021/11/01 22:33:20;;;;;;;4.07;2.17;;;;;;;;;;5138962;27;20635;-69
2021/11/01 22:47:27;;;;;;;3.57;1.90;;;;;;;;;;5091284;27;20217;-70
2021/11/01 22:58:06;;;;;;;3.60;2.20;;;;;;;;;;5134321;27;20178;-70
2021/11/01 23:00:48;;;;;;;2.97;2.20;;;;;;;;;;5111934;27;20602;-70
2021/11/01 23:33:25;;;;;;;2.60;1.90;;;;;;;;;;5071882;28;20187;-68
2021/11/01 23:35:52;;;;;;;3.33;2.27;;;;;;;;;;5072314;28;20324;-68
2021/11/01 23:38:19;;;;;;;3.67;2.10;;;;;;;;;;5070277;28;20192;-67
2021/11/01 23:40:57;;;;;;;3.20;2.07;;;;;;;;;;5078289;28;20284;-67
2021/11/01 23:43:24;;;;;;;2.10;1.77;;;;;;;;;;5081293;28;20233;-67
2021/11/01 23:45:50;;;;;;;2.20;2.00;;;;;;;;;;5083768;28;20590;-66
2021/11/01 23:48:19;;;;;;;6.07;2.23;;;;;;;;;;5081479;28;20251;-68
2021/11/01 23:50:50;;;;;;;5.00;1.80;;;;;;;;;;5072311;28;20264;-66
2021/11/01 23:56:18;;;;;;;3.27;2.03;;;;;;;;;;5073411;28;20183;-66
2021/11/01 23:58:44;;;;;;;3.70;2.13;;;;;;;;;;5068343;28;20189;-67
